sensor_id;sensor_type;location;lat;lon;timestamp;pressure;altitude;pressure_sealevel;temperature;humidity
43711;BME280;29309;42.682;23.372;2023-02-03T00:01:53;95409.09;;;3.25;67.62
43711;BME280;29309;42.682;23.372;2023-02-03T00:04:19;95406.34;;;3.25;67.90
43711;BME280;29309;42.682;23.372;2023-02-03T00:06:45;95403.81;;;3.20;68.31
43711;BME280;29309;42.682;23.372;2023-02-03T00:09:10;95413.34;;;3.19;68.53
43711;BME280;29309;42.682;23.372;2023-02-03T00:11:36;95413.91;;;3.17;68.84
43711;BME280;29309;42.682;23.372;2023-02-03T00:14:02;95423.09;;;3.12;69.20
43711;BME280;29309;42.682;23.372;2023-02-03T00:16:29;95422.38;;;3.12;69.71
43711;BME280;29309;42.682;23.372;2023-02-03T00:18:55;95431.56;;;3.07;70.23
43711;BME280;29309;42.682;23.372;2023-02-03T00:21:20;95429.97;;;3.04;70.25
43711;BME280;29309;42.682;23.372;2023-02-03T00:23:46;95419.38;;;3.00;71.50
43711;BME280;29309;42.682;23.372;2023-02-03T00:26:13;95418.16;;;2.93;71.87
43711;BME280;29309;42.682;23.372;2023-02-03T00:28:39;95421.63;;;2.94;71.96
43711;BME280;29309;42.682;23.372;2023-02-03T00:31:05;95421.81;;;2.96;72.26
43711;BME280;29309;42.682;23.372;2023-02-03T00:33:30;95428.41;;;2.93;72.54
43711;BME280;29309;42.682;23.372;2023-02-03T00:36:03;95430.03;;;2.96;72.73
43711;BME280;29309;42.682;23.372;2023-02-03T00:38:28;95437.91;;;2.92;73.27
43711;BME280;29309;42.682;23.372;2023-02-03T00:40:54;95434.28;;;2.89;73.26
43711;BME280;29309;42.682;23.372;2023-02-03T00:43:20;95449.84;;;2.87;73.45
43711;BME280;29309;42.682;23.372;2023-02-03T00:45:45;95447.50;;;2.83;73.62
43711;BME280;29309;42.682;23.372;2023-02-03T00:48:11;95446.03;;;2.82;74.32
43711;BME280;29309;42.682;23.372;2023-02-03T00:50:37;95455.94;;;2.78;74.78
43711;BME280;29309;42.682;23.372;2023-02-03T00:53:02;95456.34;;;2.74;74.82
43711;BME280;29309;42.682;23.372;2023-02-03T00:55:28;95448.66;;;2.73;75.31
43711;BME280;29309;42.682;23.372;2023-02-03T00:57:53;95455.63;;;2.74;75.96
43711;BME280;29309;42.682;23.372;2023-02-03T01:00:19;95461.25;;;2.76;76.23
43711;BME280;29309;42.682;23.372;2023-02-03T01:02:44;95463.66;;;2.72;76.48
43711;BME280;29309;42.682;23.372;2023-02-03T01:05:10;95455.28;;;2.70;76.69
43711;BME280;29309;42.682;23.372;2023-02-03T01:07:36;95459.16;;;2.67;76.70
43711;BME280;29309;42.682;23.372;2023-02-03T01:10:03;95468.50;;;2.64;76.96
43711;BME280;29309;42.682;23.372;2023-02-03T01:12:29;95470.31;;;2.61;77.36
43711;BME280;29309;42.682;23.372;2023-02-03T01:14:55;95458.63;;;2.61;77.17
43711;BME280;29309;42.682;23.372;2023-02-03T01:17:20;95463.78;;;2.57;77.49
43711;BME280;29309;42.682;23.372;2023-02-03T01:19:46;95458.84;;;2.55;77.94
43711;BME280;29309;42.682;23.372;2023-02-03T01:22:11;95459.59;;;2.56;78.01
43711;BME280;29309;42.682;23.372;2023-02-03T01:24:37;95452.50;;;2.53;77.99
43711;BME280;29309;42.682;23.372;2023-02-03T01:27:02;95448.44;;;2.54;77.79
43711;BME280;29309;42.682;23.372;2023-02-03T01:29:28;95441.91;;;2.49;77.81
43711;BME280;29309;42.682;23.372;2023-02-03T01:31:53;95449.22;;;2.46;77.25
43711;BME280;29309;42.682;23.372;2023-02-03T01:34:19;95449.78;;;2.45;77.24
43711;BME280;29309;42.682;23.372;2023-02-03T01:36:44;95454.22;;;2.40;76.93
43711;BME280;29309;42.682;23.372;2023-02-03T01:39:10;95460.63;;;2.35;76.80
43711;BME280;29309;42.682;23.372;2023-02-03T01:41:38;95460.06;;;2.37;76.57
43711;BME280;29309;42.682;23.372;2023-02-03T01:49:45;95473.22;;;2.38;76.33
43711;BME280;29309;42.682;23.372;2023-02-03T01:52:11;95471.91;;;2.39;75.82
43711;BME280;29309;42.682;23.372;2023-02-03T01:54:41;95472.50;;;2.38;75.89
43711;BME280;29309;42.682;23.372;2023-02-03T01:57:35;95475.97;;;2.38;75.81
43711;BME280;29309;42.682;23.372;2023-02-03T02:00:05;95477.25;;;2.37;76.14
43711;BME280;29309;42.682;23.372;2023-02-03T02:02:32;95478.53;;;2.36;75.79
43711;BME280;29309;42.682;23.372;2023-02-03T02:05:13;95472.69;;;2.32;75.45
43711;BME280;29309;42.682;23.372;2023-02-03T02:07:40;95469.41;;;2.34;75.67
43711;BME280;29309;42.682;23.372;2023-02-03T02:10:06;95463.19;;;2.33;75.21
43711;BME280;29309;42.682;23.372;2023-02-03T02:12:32;95467.78;;;2.31;75.19
43711;BME280;29309;42.682;23.372;2023-02-03T02:14:57;95468.72;;;2.26;75.14
43711;BME280;29309;42.682;23.372;2023-02-03T02:26:16;95470.91;;;2.27;74.73
43711;BME280;29309;42.682;23.372;2023-02-03T02:34:21;95494.69;;;2.17;74.91
43711;BME280;29309;42.682;23.372;2023-02-03T02:37:06;95502.19;;;2.17;74.99
43711;BME280;29309;42.682;23.372;2023-02-03T02:39:39;95505.47;;;2.15;74.49
43711;BME280;29309;42.682;23.372;2023-02-03T02:42:25;95502.00;;;2.15;74.63
43711;BME280;29309;42.682;23.372;2023-02-03T02:45:06;95494.38;;;2.13;74.85
43711;BME280;29309;42.682;23.372;2023-02-03T02:47:34;95482.50;;;2.11;75.14
43711;BME280;29309;42.682;23.372;2023-02-03T02:50:12;95486.19;;;2.06;74.90
43711;BME280;29309;42.682;23.372;2023-02-03T02:52:41;95490.34;;;2.07;75.08
43711;BME280;29309;42.682;23.372;2023-02-03T02:55:17;95492.78;;;2.03;75.39
43711;BME280;29309;42.682;23.372;2023-02-03T02:57:49;95488.00;;;2.03;75.47
43711;BME280;29309;42.682;23.372;2023-02-03T03:00:16;95481.84;;;1.95;75.50
43711;BME280;29309;42.682;23.372;2023-02-03T03:02:42;95486.59;;;1.94;75.18
43711;BME280;29309;42.682;23.372;2023-02-03T03:05:09;95484.97;;;1.91;75.46
43711;BME280;29309;42.682;23.372;2023-02-03T03:07:57;95493.38;;;1.86;75.31
43711;BME280;29309;42.682;23.372;2023-02-03T03:10:30;95504.31;;;1.86;75.27
43711;BME280;29309;42.682;23.372;2023-02-03T03:13:01;95499.78;;;1.81;75.34
43711;BME280;29309;42.682;23.372;2023-02-03T03:15:30;95502.34;;;1.79;74.78
43711;BME280;29309;42.682;23.372;2023-02-03T03:20:24;95510.38;;;1.77;73.94
43711;BME280;29309;42.682;23.372;2023-02-03T03:23:14;95522.59;;;1.76;74.08
43711;BME280;29309;42.682;23.372;2023-02-03T03:25:45;95520.03;;;1.78;73.59
43711;BME280;29309;42.682;23.372;2023-02-03T03:28:16;95514.22;;;1.74;73.29
43711;BME280;29309;42.682;23.372;2023-02-03T03:30:45;95512.56;;;1.71;73.26
43711;BME280;29309;42.682;23.372;2023-02-03T03:33:10;95523.34;;;1.69;73.41
43711;BME280;29309;42.682;23.372;2023-02-03T03:35:53;95530.63;;;1.74;72.80
43711;BME280;29309;42.682;23.372;2023-02-03T03:38:26;95519.53;;;1.72;73.10
43711;BME280;29309;42.682;23.372;2023-02-03T03:41:05;95529.19;;;1.73;73.07
43711;BME280;29309;42.682;23.372;2023-02-03T03:43:36;95534.66;;;1.73;72.03
43711;BME280;29309;42.682;23.372;2023-02-03T03:46:12;95541.56;;;1.74;72.12
43711;BME280;29309;42.682;23.372;2023-02-03T03:48:54;95540.88;;;1.73;72.04
43711;BME280;29309;42.682;23.372;2023-02-03T03:51:29;95529.91;;;1.81;71.88
43711;BME280;29309;42.682;23.372;2023-02-03T03:53:59;95531.34;;;1.82;71.77
43711;BME280;29309;42.682;23.372;2023-02-03T03:56:32;95535.53;;;1.83;71.71
43711;BME280;29309;42.682;23.372;2023-02-03T03:59:00;95531.53;;;1.84;71.70
43711;BME280;29309;42.682;23.372;2023-02-03T04:01:28;95545.22;;;1.84;71.71
43711;BME280;29309;42.682;23.372;2023-02-03T04:03:58;95548.13;;;1.86;71.51
43711;BME280;29309;42.682;23.372;2023-02-03T04:06:24;95550.69;;;1.84;71.80
43711;BME280;29309;42.682;23.372;2023-02-03T04:08:50;95559.81;;;1.86;71.85
43711;BME280;29309;42.682;23.372;2023-02-03T04:11:15;95559.06;;;1.86;71.90
43711;BME280;29309;42.682;23.372;2023-02-03T04:14:01;95561.81;;;1.86;71.54
43711;BME280;29309;42.682;23.372;2023-02-03T04:16:26;95569.66;;;1.89;71.90
43711;BME280;29309;42.682;23.372;2023-02-03T04:18:51;95562.69;;;1.88;72.23
43711;BME280;29309;42.682;23.372;2023-02-03T04:21:17;95577.31;;;1.91;71.99
43711;BME280;29309;42.682;23.372;2023-02-03T04:23:43;95584.06;;;1.90;72.02
43711;BME280;29309;42.682;23.372;2023-02-03T04:26:08;95587.19;;;1.86;72.00
43711;BME280;29309;42.682;23.372;2023-02-03T04:28:33;95595.22;;;1.84;72.44
43711;BME280;29309;42.682;23.372;2023-02-03T04:31:00;95596.28;;;1.81;72.93
43711;BME280;29309;42.682;23.372;2023-02-03T04:33:25;95595.94;;;1.85;72.91
43711;BME280;29309;42.682;23.372;2023-02-03T04:35:52;95594.66;;;1.86;72.77
43711;BME280;29309;42.682;23.372;2023-02-03T04:38:17;95598.28;;;1.88;72.64
43711;BME280;29309;42.682;23.372;2023-02-03T04:40:43;95593.38;;;1.87;72.46
43711;BME280;29309;42.682;23.372;2023-02-03T04:43:10;95596.28;;;1.89;72.46
43711;BME280;29309;42.682;23.372;2023-02-03T04:45:36;95607.06;;;1.87;72.07
43711;BME280;29309;42.682;23.372;2023-02-03T04:48:02;95606.16;;;1.84;72.71
43711;BME280;29309;42.682;23.372;2023-02-03T04:50:29;95608.19;;;1.84;72.94
43711;BME280;29309;42.682;23.372;2023-02-03T04:52:55;95609.09;;;1.79;73.01
43711;BME280;29309;42.682;23.372;2023-02-03T04:55:23;95612.34;;;1.85;75.92
43711;BME280;29309;42.682;23.372;2023-02-03T04:57:48;95610.16;;;1.91;76.95
43711;BME280;29309;42.682;23.372;2023-02-03T05:00:14;95603.97;;;1.90;74.99
43711;BME280;29309;42.682;23.372;2023-02-03T05:02:39;95620.19;;;1.88;73.80
43711;BME280;29309;42.682;23.372;2023-02-03T05:05:05;95614.91;;;1.83;73.46
43711;BME280;29309;42.682;23.372;2023-02-03T05:07:30;95622.03;;;1.78;73.36
43711;BME280;29309;42.682;23.372;2023-02-03T05:09:56;95628.06;;;1.77;73.25
43711;BME280;29309;42.682;23.372;2023-02-03T05:12:21;95624.41;;;1.74;73.26
43711;BME280;29309;42.682;23.372;2023-02-03T05:14:47;95636.06;;;1.90;77.14
43711;BME280;29309;42.682;23.372;2023-02-03T05:17:12;95632.03;;;2.06;76.91
43711;BME280;29309;42.682;23.372;2023-02-03T05:19:38;95643.72;;;1.99;75.57
43711;BME280;29309;42.682;23.372;2023-02-03T05:22:03;95640.63;;;1.95;73.90
43711;BME280;29309;42.682;23.372;2023-02-03T05:24:28;95641.00;;;1.91;75.35
43711;BME280;29309;42.682;23.372;2023-02-03T05:26:54;95649.59;;;1.88;73.69
43711;BME280;29309;42.682;23.372;2023-02-03T05:29:19;95650.13;;;1.86;73.89
43711;BME280;29309;42.682;23.372;2023-02-03T05:31:45;95651.41;;;1.85;75.93
43711;BME280;29309;42.682;23.372;2023-02-03T05:34:10;95641.38;;;1.88;74.54
43711;BME280;29309;42.682;23.372;2023-02-03T05:36:36;95643.19;;;1.85;74.45
43711;BME280;29309;42.682;23.372;2023-02-03T05:39:01;95640.81;;;1.82;74.46
43711;BME280;29309;42.682;23.372;2023-02-03T05:41:26;95641.19;;;1.78;75.20
43711;BME280;29309;42.682;23.372;2023-02-03T05:44:10;95645.94;;;1.78;75.69
43711;BME280;29309;42.682;23.372;2023-02-03T05:46:36;95648.88;;;1.72;73.85
43711;BME280;29309;42.682;23.372;2023-02-03T05:49:01;95648.13;;;1.72;73.58
43711;BME280;29309;42.682;23.372;2023-02-03T05:51:27;95652.72;;;1.69;73.91
43711;BME280;29309;42.682;23.372;2023-02-03T05:53:52;95660.00;;;1.67;74.88
43711;BME280;29309;42.682;23.372;2023-02-03T05:56:18;95659.81;;;1.65;74.60
43711;BME280;29309;42.682;23.372;2023-02-03T05:58:43;95662.72;;;1.67;74.02
43711;BME280;29309;42.682;23.372;2023-02-03T06:01:09;95664.94;;;1.68;74.76
43711;BME280;29309;42.682;23.372;2023-02-03T06:03:36;95662.56;;;1.65;74.72
43711;BME280;29309;42.682;23.372;2023-02-03T06:06:03;95649.97;;;1.62;73.72
43711;BME280;29309;42.682;23.372;2023-02-03T06:08:29;95658.72;;;1.60;74.67
43711;BME280;29309;42.682;23.372;2023-02-03T06:10:58;95660.91;;;1.62;74.40
43711;BME280;29309;42.682;23.372;2023-02-03T06:13:25;95662.72;;;1.67;73.47
43711;BME280;29309;42.682;23.372;2023-02-03T06:15:50;95667.66;;;1.68;73.45
43711;BME280;29309;42.682;23.372;2023-02-03T06:18:16;95672.41;;;1.68;74.09
43711;BME280;29309;42.682;23.372;2023-02-03T06:20:41;95676.78;;;1.71;73.27
43711;BME280;29309;42.682;23.372;2023-02-03T06:23:07;95674.03;;;1.71;73.49
43711;BME280;29309;42.682;23.372;2023-02-03T06:25:32;95671.66;;;1.75;73.78
43711;BME280;29309;42.682;23.372;2023-02-03T06:27:58;95682.97;;;1.94;73.33
43711;BME280;29309;42.682;23.372;2023-02-03T06:30:24;95692.63;;;2.10;73.33
43711;BME280;29309;42.682;23.372;2023-02-03T06:32:49;95685.81;;;2.34;72.35
43711;BME280;29309;42.682;23.372;2023-02-03T06:35:16;95692.81;;;2.75;69.52
43711;BME280;29309;42.682;23.372;2023-02-03T06:37:41;95704.41;;;2.98;69.09
43711;BME280;29309;42.682;23.372;2023-02-03T06:40:08;95706.22;;;3.35;66.89
43711;BME280;29309;42.682;23.372;2023-02-03T06:42:33;95704.97;;;3.61;65.70
43711;BME280;29309;42.682;23.372;2023-02-03T06:44:59;95707.50;;;3.84;64.49
43711;BME280;29309;42.682;23.372;2023-02-03T06:47:24;95718.31;;;4.07;64.56
43711;BME280;29309;42.682;23.372;2023-02-03T06:49:50;95726.19;;;4.27;65.88
43711;BME280;29309;42.682;23.372;2023-02-03T06:52:16;95721.59;;;4.47;62.44
43711;BME280;29309;42.682;23.372;2023-02-03T06:54:42;95727.44;;;4.68;59.93
43711;BME280;29309;42.682;23.372;2023-02-03T06:57:07;95721.09;;;4.92;59.06
43711;BME280;29309;42.682;23.372;2023-02-03T06:59:33;95722.44;;;5.18;59.03
43711;BME280;29309;42.682;23.372;2023-02-03T07:01:58;95725.47;;;5.39;58.21
43711;BME280;29309;42.682;23.372;2023-02-03T07:04:24;95718.97;;;5.44;55.75
43711;BME280;29309;42.682;23.372;2023-02-03T07:06:52;95707.78;;;5.69;59.61
43711;BME280;29309;42.682;23.372;2023-02-03T07:09:18;95708.28;;;5.85;54.33
43711;BME280;29309;42.682;23.372;2023-02-03T07:11:43;95698.56;;;5.84;53.25
43711;BME280;29309;42.682;23.372;2023-02-03T07:14:09;95695.03;;;5.74;54.08
43711;BME280;29309;42.682;23.372;2023-02-03T07:16:34;95700.78;;;5.95;54.55
43711;BME280;29309;42.682;23.372;2023-02-03T07:19:03;95690.81;;;6.09;52.87
43711;BME280;29309;42.682;23.372;2023-02-03T07:21:29;95703.34;;;6.29;56.88
43711;BME280;29309;42.682;23.372;2023-02-03T07:23:54;95701.34;;;6.39;52.73
43711;BME280;29309;42.682;23.372;2023-02-03T07:26:20;95700.47;;;6.47;52.72
43711;BME280;29309;42.682;23.372;2023-02-03T07:28:47;95709.78;;;6.70;52.66
43711;BME280;29309;42.682;23.372;2023-02-03T07:31:13;95704.97;;;6.71;52.02
43711;BME280;29309;42.682;23.372;2023-02-03T07:33:39;95717.03;;;6.47;54.02
43711;BME280;29309;42.682;23.372;2023-02-03T07:36:05;95713.09;;;6.59;51.45
43711;BME280;29309;42.682;23.372;2023-02-03T07:38:31;95713.69;;;6.77;51.29
43711;BME280;29309;42.682;23.372;2023-02-03T07:40:56;95713.66;;;7.06;52.69
43711;BME280;29309;42.682;23.372;2023-02-03T07:43:22;95715.72;;;7.05;49.80
43711;BME280;29309;42.682;23.372;2023-02-03T07:45:48;95721.53;;;7.00;50.22
43711;BME280;29309;42.682;23.372;2023-02-03T07:48:14;95731.53;;;7.24;49.93
43711;BME280;29309;42.682;23.372;2023-02-03T07:50:39;95728.22;;;7.16;49.35
43711;BME280;29309;42.682;23.372;2023-02-03T07:53:05;95718.31;;;7.13;48.80
43711;BME280;29309;42.682;23.372;2023-02-03T07:55:31;95711.50;;;7.04;48.58
43711;BME280;29309;42.682;23.372;2023-02-03T07:57:57;95705.25;;;7.23;48.30
43711;BME280;29309;42.682;23.372;2023-02-03T08:00:24;95703.47;;;7.27;48.55
43711;BME280;29309;42.682;23.372;2023-02-03T08:02:50;95721.81;;;7.13;47.34
43711;BME280;29309;42.682;23.372;2023-02-03T08:05:16;95718.16;;;7.20;47.99
43711;BME280;29309;42.682;23.372;2023-02-03T08:07:42;95724.44;;;6.92;48.24
43711;BME280;29309;42.682;23.372;2023-02-03T08:10:10;95728.38;;;7.08;48.50
43711;BME280;29309;42.682;23.372;2023-02-03T08:12:36;95729.06;;;7.18;48.05
43711;BME280;29309;42.682;23.372;2023-02-03T08:15:02;95731.81;;;7.37;47.39
43711;BME280;29309;42.682;23.372;2023-02-03T08:17:28;95740.19;;;7.59;48.59
43711;BME280;29309;42.682;23.372;2023-02-03T08:19:53;95739.53;;;7.79;47.30
43711;BME280;29309;42.682;23.372;2023-02-03T08:22:19;95734.75;;;7.80;47.71
43711;BME280;29309;42.682;23.372;2023-02-03T08:24:45;95728.09;;;8.04;45.39
43711;BME280;29309;42.682;23.372;2023-02-03T08:27:16;95734.06;;;8.01;45.89
43711;BME280;29309;42.682;23.372;2023-02-03T08:29:43;95734.22;;;8.03;46.06
43711;BME280;29309;42.682;23.372;2023-02-03T08:32:14;95739.78;;;7.93;46.09
43711;BME280;29309;42.682;23.372;2023-02-03T08:34:40;95749.75;;;7.77;45.85
43711;BME280;29309;42.682;23.372;2023-02-03T08:37:06;95738.88;;;7.60;46.23
43711;BME280;29309;42.682;23.372;2023-02-03T08:39:33;95753.75;;;7.35;46.96
43711;BME280;29309;42.682;23.372;2023-02-03T08:41:59;95753.63;;;7.24;47.83
43711;BME280;29309;42.682;23.372;2023-02-03T08:44:25;95763.22;;;7.04;49.21
43711;BME280;29309;42.682;23.372;2023-02-03T08:46:51;95762.34;;;6.82;47.84
43711;BME280;29309;42.682;23.372;2023-02-03T08:49:18;95764.94;;;6.61;48.70
43711;BME280;29309;42.682;23.372;2023-02-03T08:51:45;95763.88;;;6.37;48.66
43711;BME280;29309;42.682;23.372;2023-02-03T08:54:11;95768.31;;;6.13;48.81
43711;BME280;29309;42.682;23.372;2023-02-03T08:56:38;95772.38;;;5.85;50.05
43711;BME280;29309;42.682;23.372;2023-02-03T08:59:03;95777.00;;;5.83;50.26
43711;BME280;29309;42.682;23.372;2023-02-03T09:01:29;95782.47;;;5.73;51.14
43711;BME280;29309;42.682;23.372;2023-02-03T09:03:54;95773.84;;;5.60;51.53
43711;BME280;29309;42.682;23.372;2023-02-03T09:06:20;95782.72;;;5.41;51.22
43711;BME280;29309;42.682;23.372;2023-02-03T09:08:47;95768.16;;;5.31;51.68
43711;BME280;29309;42.682;23.372;2023-02-03T09:11:15;95771.00;;;5.23;52.76
43711;BME280;29309;42.682;23.372;2023-02-03T09:13:41;95771.56;;;5.22;53.17
43711;BME280;29309;42.682;23.372;2023-02-03T09:16:17;95766.47;;;5.18;53.81
43711;BME280;29309;42.682;23.372;2023-02-03T09:18:44;95766.22;;;5.07;53.37
43711;BME280;29309;42.682;23.372;2023-02-03T09:21:10;95767.78;;;5.00;54.11
43711;BME280;29309;42.682;23.372;2023-02-03T09:23:37;95755.34;;;4.99;54.58
43711;BME280;29309;42.682;23.372;2023-02-03T09:26:08;95762.78;;;5.06;54.88
43711;BME280;29309;42.682;23.372;2023-02-03T09:28:34;95759.03;;;5.11;53.66
43711;BME280;29309;42.682;23.372;2023-02-03T09:33:26;95758.97;;;5.02;54.14
43711;BME280;29309;42.682;23.372;2023-02-03T09:35:52;95763.69;;;4.91;56.17
43711;BME280;29309;42.682;23.372;2023-02-03T09:38:18;95762.03;;;4.88;54.03
43711;BME280;29309;42.682;23.372;2023-02-03T09:40:48;95769.34;;;4.76;54.68
43711;BME280;29309;42.682;23.372;2023-02-03T09:46:12;95766.81;;;4.54;55.67
43711;BME280;29309;42.682;23.372;2023-02-03T09:48:43;95762.78;;;4.55;56.37
43711;BME280;29309;42.682;23.372;2023-02-03T09:51:20;95755.34;;;4.47;56.38
43711;BME280;29309;42.682;23.372;2023-02-03T09:55:05;95757.97;;;4.38;56.64
43711;BME280;29309;42.682;23.372;2023-02-03T09:57:14;95754.81;;;4.24;54.89
43711;BME280;29309;42.682;23.372;2023-02-03T09:59:42;95751.25;;;4.31;55.56
43711;BME280;29309;42.682;23.372;2023-02-03T10:05:02;95750.31;;;4.36;55.07
43711;BME280;29309;42.682;23.372;2023-02-03T10:07:45;95746.75;;;4.43;53.76
43711;BME280;29309;42.682;23.372;2023-02-03T10:10:23;95742.22;;;4.38;54.13
43711;BME280;29309;42.682;23.372;2023-02-03T10:18:46;95739.47;;;4.38;52.64
43711;BME280;29309;42.682;23.372;2023-02-03T10:23:50;95745.63;;;4.46;52.13
43711;BME280;29309;42.682;23.372;2023-02-03T10:26:22;95743.28;;;4.43;51.39
43711;BME280;29309;42.682;23.372;2023-02-03T10:29:18;95736.75;;;4.56;51.78
43711;BME280;29309;42.682;23.372;2023-02-03T10:31:44;95731.38;;;4.75;51.25
43711;BME280;29309;42.682;23.372;2023-02-03T10:34:13;95727.97;;;5.01;50.78
43711;BME280;29309;42.682;23.372;2023-02-03T10:36:55;95729.25;;;5.17;49.66
43711;BME280;29309;42.682;23.372;2023-02-03T10:39:50;95729.78;;;5.33;47.95
43711;BME280;29309;42.682;23.372;2023-02-03T10:42:16;95730.19;;;5.56;47.02
43711;BME280;29309;42.682;23.372;2023-02-03T10:44:59;95722.28;;;5.70;47.06
43711;BME280;29309;42.682;23.372;2023-02-03T10:47:36;95722.38;;;5.62;46.32
43711;BME280;29309;42.682;23.372;2023-02-03T10:50:23;95721.97;;;5.66;46.57
43711;BME280;29309;42.682;23.372;2023-02-03T10:53:25;95736.88;;;5.63;47.29
43711;BME280;29309;42.682;23.372;2023-02-03T10:58:26;95740.16;;;5.25;46.52
43711;BME280;29309;42.682;23.372;2023-02-03T11:01:03;95739.13;;;5.20;47.84
43711;BME280;29309;42.682;23.372;2023-02-03T11:03:29;95733.88;;;4.97;46.99
43711;BME280;29309;42.682;23.372;2023-02-03T11:06:06;95734.63;;;4.98;45.15
43711;BME280;29309;42.682;23.372;2023-02-03T11:08:34;95717.47;;;4.90;45.52
43711;BME280;29309;42.682;23.372;2023-02-03T11:11:08;95724.16;;;4.96;46.50
43711;BME280;29309;42.682;23.372;2023-02-03T11:13:35;95723.22;;;5.02;46.14
43711;BME280;29309;42.682;23.372;2023-02-03T11:16:17;95720.59;;;5.04;46.69
43711;BME280;29309;42.682;23.372;2023-02-03T11:19:04;95716.16;;;5.08;46.06
43711;BME280;29309;42.682;23.372;2023-02-03T11:21:32;95722.69;;;5.13;46.15
43711;BME280;29309;42.682;23.372;2023-02-03T11:26:35;95709.19;;;5.07;45.10
43711;BME280;29309;42.682;23.372;2023-02-03T11:29:03;95707.94;;;4.91;44.04
43711;BME280;29309;42.682;23.372;2023-02-03T11:31:32;95703.41;;;4.86;44.14
43711;BME280;29309;42.682;23.372;2023-02-03T11:34:02;95698.88;;;4.81;43.65
43711;BME280;29309;42.682;23.372;2023-02-03T11:36:30;95708.31;;;5.05;44.73
43711;BME280;29309;42.682;23.372;2023-02-03T11:41:43;95694.50;;;5.49;45.89
43711;BME280;29309;42.682;23.372;2023-02-03T11:44:28;95691.16;;;5.50;45.10
43711;BME280;29309;42.682;23.372;2023-02-03T11:47:06;95688.66;;;5.35;45.00
43711;BME280;29309;42.682;23.372;2023-02-03T11:52:37;95681.47;;;5.22;46.23
43711;BME280;29309;42.682;23.372;2023-02-03T11:55:25;95683.28;;;5.10;45.21
43711;BME280;29309;42.682;23.372;2023-02-03T12:00:44;95675.38;;;4.97;43.00
43711;BME280;29309;42.682;23.372;2023-02-03T12:08:51;95689.66;;;5.39;42.30
43711;BME280;29309;42.682;23.372;2023-02-03T12:11:55;95690.34;;;5.30;44.06
43711;BME280;29309;42.682;23.372;2023-02-03T12:20:15;95679.59;;;5.88;40.20
43711;BME280;29309;42.682;23.372;2023-02-03T12:30:59;95682.25;;;6.05;37.34
43711;BME280;29309;42.682;23.372;2023-02-03T12:33:37;95679.72;;;6.65;36.94
43711;BME280;29309;42.682;23.372;2023-02-03T12:36:14;95691.03;;;7.07;38.15
43711;BME280;29309;42.682;23.372;2023-02-03T12:38:45;95683.03;;;6.73;37.37
43711;BME280;29309;42.682;23.372;2023-02-03T12:41:17;95684.50;;;6.74;36.89
43711;BME280;29309;42.682;23.372;2023-02-03T12:43:46;95676.66;;;6.41;37.98
43711;BME280;29309;42.682;23.372;2023-02-03T12:46:20;95662.00;;;5.74;39.69
43711;BME280;29309;42.682;23.372;2023-02-03T12:48:51;95668.47;;;5.32;39.74
43711;BME280;29309;42.682;23.372;2023-02-03T12:51:44;95664.75;;;5.11;41.12
43711;BME280;29309;42.682;23.372;2023-02-03T12:57:40;95659.78;;;4.82;41.89
43711;BME280;29309;42.682;23.372;2023-02-03T13:05:27;95643.25;;;4.73;43.18
43711;BME280;29309;42.682;23.372;2023-02-03T13:11:18;95651.34;;;4.36;45.13
43711;BME280;29309;42.682;23.372;2023-02-03T13:13:51;95658.06;;;4.43;45.52
43711;BME280;29309;42.682;23.372;2023-02-03T13:16:24;95660.06;;;4.42;45.89
43711;BME280;29309;42.682;23.372;2023-02-03T13:18:58;95656.78;;;4.44;46.32
43711;BME280;29309;42.682;23.372;2023-02-03T13:21:27;95650.94;;;4.40;45.84
43711;BME280;29309;42.682;23.372;2023-02-03T13:23:52;95651.19;;;4.52;45.56
43711;BME280;29309;42.682;23.372;2023-02-03T13:40:57;95644.81;;;4.32;46.47
43711;BME280;29309;42.682;23.372;2023-02-03T13:43:30;95641.19;;;4.29;46.76
43711;BME280;29309;42.682;23.372;2023-02-03T13:45:58;95651.59;;;4.31;47.05
43711;BME280;29309;42.682;23.372;2023-02-03T13:48:27;95649.25;;;4.27;46.70
43711;BME280;29309;42.682;23.372;2023-02-03T13:51:15;95647.16;;;4.18;46.45
43711;BME280;29309;42.682;23.372;2023-02-03T13:53:44;95660.00;;;4.16;46.65
43711;BME280;29309;42.682;23.372;2023-02-03T13:56:21;95658.94;;;4.11;47.72
43711;BME280;29309;42.682;23.372;2023-02-03T14:01:40;95658.84;;;4.02;49.28
43711;BME280;29309;42.682;23.372;2023-02-03T14:04:08;95649.88;;;4.01;48.78
43711;BME280;29309;42.682;23.372;2023-02-03T14:06:55;95657.88;;;4.07;49.45
43711;BME280;29309;42.682;23.372;2023-02-03T14:09:34;95646.50;;;4.10;49.48
43711;BME280;29309;42.682;23.372;2023-02-03T14:14:55;95650.84;;;4.13;49.89
43711;BME280;29309;42.682;23.372;2023-02-03T14:20:02;95642.38;;;4.19;51.46
43711;BME280;29309;42.682;23.372;2023-02-03T14:22:30;95636.56;;;4.15;50.33
43711;BME280;29309;42.682;23.372;2023-02-03T14:25:03;95642.13;;;4.07;50.20
43711;BME280;29309;42.682;23.372;2023-02-03T14:27:30;95635.91;;;4.07;50.19
43711;BME280;29309;42.682;23.372;2023-02-03T14:32:53;95637.44;;;4.00;50.56
43711;BME280;29309;42.682;23.372;2023-02-03T14:35:37;95628.13;;;3.95;50.88
43711;BME280;29309;42.682;23.372;2023-02-03T14:38:09;95627.88;;;3.84;50.91
43711;BME280;29309;42.682;23.372;2023-02-03T14:43:16;95625.19;;;3.76;50.39
43711;BME280;29309;42.682;23.372;2023-02-03T14:51:23;95634.50;;;3.81;49.54
43711;BME280;29309;42.682;23.372;2023-02-03T14:59:28;95628.19;;;3.71;51.83
43711;BME280;29309;42.682;23.372;2023-02-03T15:02:11;95623.44;;;3.71;48.44
43711;BME280;29309;42.682;23.372;2023-02-03T15:04:38;95618.72;;;3.64;49.22
43711;BME280;29309;42.682;23.372;2023-02-03T15:07:04;95602.25;;;3.64;48.14
43711;BME280;29309;42.682;23.372;2023-02-03T15:09:42;95607.75;;;3.64;46.53
43711;BME280;29309;42.682;23.372;2023-02-03T15:12:18;95597.56;;;3.57;46.40
43711;BME280;29309;42.682;23.372;2023-02-03T15:14:46;95595.94;;;3.54;46.52
43711;BME280;29309;42.682;23.372;2023-02-03T15:17:20;95592.88;;;3.50;46.71